Time;durP1;ratioP1;P1;durP2;ratioP2;P2;SDS_P1;SDS_P2;PMS_P1;PMS_P2;Temp;Humidity;BMP_temperature;BMP_pressure;BME280_temperature;BME280_humidity;BME280_pressure;Samples;Min_cycle;Max_cycle;Signal;HPM_P1;HPM_P2
2022/08/25 00:01:51;;;;;;;10.23;5.38;;;17.40;99.90;;;;;;5053156;28;20373;-70
2022/08/25 00:04:18;;;;;;;9.35;4.75;;;17.40;99.90;;;;;;5053238;28;20021;-71
2022/08/25 00:06:45;;;;;;;6.95;4.15;;;17.40;99.90;;;;;;5053242;28;20536;-71
2022/08/25 00:09:13;;;;;;;13.60;5.03;;;17.40;99.90;;;;;;5053077;28;20075;-71
2022/08/25 00:11:40;;;;;;;8.77;5.22;;;17.40;99.90;;;;;;5053233;28;20044;-71
2022/08/25 00:14:11;;;;;;;9.98;4.70;;;17.30;99.90;;;;;;5053517;28;20025;-71
2022/08/25 00:16:37;;;;;;;8.57;4.45;;;17.30;99.90;;;;;;5053110;28;20022;-71
2022/08/25 00:19:07;;;;;;;11.10;5.10;;;17.30;99.90;;;;;;5053047;28;20017;-71
2022/08/25 00:21:33;;;;;;;11.27;5.15;;;17.30;99.90;;;;;;5053152;28;20025;-71
2022/08/25 00:24:01;;;;;;;15.38;6.53;;;17.30;99.90;;;;;;5052997;28;20470;-70
2022/08/25 00:26:27;;;;;;;10.70;5.93;;;17.30;99.90;;;;;;5052979;28;20028;-71
2022/08/25 00:28:53;;;;;;;14.30;5.13;;;17.30;99.90;;;;;;5053047;28;20021;-71
2022/08/25 00:31:22;;;;;;;11.38;4.55;;;17.30;99.90;;;;;;5056718;28;20036;-71
2022/08/25 00:33:49;;;;;;;8.10;5.50;;;17.30;99.90;;;;;;5057251;28;20031;-71
2022/08/25 00:36:16;;;;;;;14.75;5.15;;;17.30;99.90;;;;;;5056702;28;20037;-71
2022/08/25 00:38:44;;;;;;;13.23;6.32;;;17.30;99.90;;;;;;5057124;28;20108;-71
2022/08/25 00:41:14;;;;;;;10.65;5.10;;;17.30;99.90;;;;;;5056762;28;20107;-71
2022/08/25 00:43:39;;;;;;;8.52;4.78;;;17.30;99.90;;;;;;5056646;28;20481;-70
2022/08/25 00:46:05;;;;;;;8.95;5.25;;;17.30;99.90;;;;;;5056694;28;20032;-71
2022/08/25 00:48:31;;;;;;;8.98;4.63;;;17.30;99.90;;;;;;5056596;28;20102;-70
2022/08/25 00:50:57;;;;;;;8.15;4.38;;;17.20;99.90;;;;;;5056462;28;20434;-70
2022/08/25 00:53:22;;;;;;;8.55;5.45;;;17.20;99.90;;;;;;5056424;28;20480;-70
2022/08/25 00:55:49;;;;;;;9.38;5.00;;;17.20;99.90;;;;;;5056425;28;20025;-71
2022/08/25 00:58:23;;;;;;;12.00;5.13;;;17.10;99.90;;;;;;5057093;28;20376;-71
2022/08/25 01:00:51;;;;;;;7.63;4.57;;;17.20;99.90;;;;;;5056789;28;20041;-70
2022/08/25 01:03:18;;;;;;;12.70;5.05;;;17.20;99.90;;;;;;5056930;28;20084;-71
2022/08/25 01:05:45;;;;;;;11.02;5.80;;;17.10;99.90;;;;;;5056238;28;20021;-71
2022/08/25 01:08:12;;;;;;;18.25;6.05;;;17.10;99.90;;;;;;5056288;28;20021;-71
2022/08/25 01:10:41;;;;;;;12.73;6.75;;;17.00;99.90;;;;;;5056312;28;20036;-70
2022/08/25 01:13:14;;;;;;;7.95;5.53;;;17.10;99.90;;;;;;5056480;28;20082;-71
2022/08/25 01:15:40;;;;;;;16.23;6.28;;;17.10;99.90;;;;;;5055986;28;20040;-71
2022/08/25 01:18:06;;;;;;;8.70;5.78;;;17.10;99.90;;;;;;5056191;28;20027;-71
2022/08/25 01:20:33;;;;;;;12.15;5.97;;;17.10;99.90;;;;;;5056198;28;20031;-70
2022/08/25 01:22:59;;;;;;;12.23;7.22;;;17.10;99.90;;;;;;5056283;28;20021;-71
2022/08/25 01:25:59;;;;;;;15.20;5.78;;;17.10;99.90;;;;;;5056023;28;20108;-71
2022/08/25 01:28:25;;;;;;;12.70;5.82;;;17.10;99.90;;;;;;5056507;28;20103;-71
2022/08/25 01:30:51;;;;;;;17.00;7.10;;;17.10;99.90;;;;;;5056382;28;20057;-70
2022/08/25 01:33:17;;;;;;;16.13;6.75;;;17.10;99.90;;;;;;5056190;28;20021;-71
2022/08/25 01:35:44;;;;;;;19.30;6.18;;;17.10;99.90;;;;;;5055795;28;20074;-70
2022/08/25 01:38:11;;;;;;;7.57;5.68;;;17.00;99.90;;;;;;5055793;28;20064;-70
2022/08/25 01:40:38;;;;;;;12.75;5.55;;;17.10;99.90;;;;;;5055821;28;20021;-71
2022/08/25 01:43:16;;;;;;;12.43;5.88;;;17.10;99.90;;;;;;5054275;28;20032;-70
2022/08/25 01:45:46;;;;;;;13.88;4.72;;;17.10;99.90;;;;;;5055304;28;20024;-71
2022/08/25 01:48:13;;;;;;;8.60;5.45;;;17.00;99.90;;;;;;5055405;28;20098;-71
2022/08/25 01:50:40;;;;;;;11.32;5.75;;;17.00;99.90;;;;;;5055643;28;20048;-70
2022/08/25 01:53:16;;;;;;;7.90;4.82;;;17.00;99.90;;;;;;5089248;22;20048;-69
2022/08/25 01:55:51;;;;;;;9.90;5.45;;;16.90;99.90;;;;;;5075617;28;20027;-68
2022/08/25 01:58:22;;;;;;;10.05;5.63;;;16.80;99.90;;;;;;5075961;28;20028;-68
2022/08/25 02:00:50;;;;;;;10.18;5.13;;;16.70;99.90;;;;;;5075502;28;20058;-68
2022/08/25 02:03:17;;;;;;;10.27;5.00;;;16.60;99.90;;;;;;5075360;28;20031;-67
2022/08/25 02:05:43;;;;;;;9.38;5.28;;;16.60;99.90;;;;;;5075228;28;20447;-68
2022/08/25 02:08:10;;;;;;;9.18;5.28;;;16.50;99.90;;;;;;5061010;28;20099;-68
2022/08/25 02:10:37;;;;;;;8.90;5.35;;;16.50;99.90;;;;;;5054862;28;20480;-68
2022/08/25 02:13:03;;;;;;;11.35;5.45;;;16.40;99.90;;;;;;5054819;28;20025;-69
2022/08/25 02:15:29;;;;;;;7.53;5.40;;;16.30;99.90;;;;;;5055044;28;20048;-67
2022/08/25 02:17:56;;;;;;;11.27;5.50;;;16.20;99.90;;;;;;5055255;28;20025;-67
2022/08/25 02:20:22;;;;;;;10.80;5.35;;;16.20;99.90;;;;;;5054808;28;20523;-67
2022/08/25 02:22:50;;;;;;;12.85;5.93;;;16.20;99.90;;;;;;5054516;28;20083;-68
2022/08/25 02:25:16;;;;;;;6.82;6.13;;;16.10;99.90;;;;;;5054914;28;20027;-67
2022/08/25 02:27:41;;;;;;;10.52;6.70;;;16.10;99.90;;;;;;5054740;28;20017;-67
2022/08/25 02:30:08;;;;;;;14.40;8.57;;;16.10;99.90;;;;;;5054671;28;20036;-67
2022/08/25 02:32:33;;;;;;;14.18;6.78;;;16.20;99.90;;;;;;5054580;28;20078;-68
2022/08/25 02:34:59;;;;;;;14.02;7.22;;;16.20;99.90;;;;;;5054455;28;20090;-68
2022/08/25 02:37:24;;;;;;;13.38;6.95;;;16.20;99.90;;;;;;5054583;28;20025;-69
2022/08/25 02:39:50;;;;;;;8.50;6.57;;;16.20;99.90;;;;;;5054391;28;20532;-67
2022/08/25 02:42:16;;;;;;;12.82;7.07;;;16.30;99.90;;;;;;5054347;28;20040;-68
2022/08/25 02:44:41;;;;;;;12.93;7.93;;;16.20;99.90;;;;;;5054326;28;20036;-68
2022/08/25 02:47:07;;;;;;;14.30;6.65;;;16.20;99.90;;;;;;5054446;28;20068;-67
2022/08/25 02:49:34;;;;;;;11.30;6.95;;;16.20;99.90;;;;;;5054599;28;20461;-67
2022/08/25 02:51:59;;;;;;;9.30;6.57;;;16.20;99.90;;;;;;5053482;28;20071;-67
2022/08/25 02:54:26;;;;;;;8.52;5.95;;;16.20;99.90;;;;;;5054475;28;20025;-67
2022/08/25 02:56:52;;;;;;;10.20;6.68;;;16.20;99.90;;;;;;5054464;28;20071;-68
2022/08/25 02:59:18;;;;;;;10.77;6.78;;;16.10;99.90;;;;;;5058218;28;20399;-68
2022/08/25 03:01:44;;;;;;;15.43;7.97;;;16.10;99.90;;;;;;5074395;28;20032;-67
2022/08/25 03:04:10;;;;;;;13.00;8.10;;;16.10;99.90;;;;;;5074159;28;20028;-67
2022/08/25 03:06:35;;;;;;;18.73;8.75;;;16.10;99.90;;;;;;5073982;28;20460;-67
2022/08/25 03:09:02;;;;;;;14.52;8.82;;;16.00;99.90;;;;;;5073923;28;20025;-67
2022/08/25 03:11:27;;;;;;;14.77;7.90;;;16.00;99.90;;;;;;5073746;28;20488;-68
2022/08/25 03:13:55;;;;;;;15.43;7.85;;;16.00;99.90;;;;;;5073843;28;20134;-68
2022/08/25 03:16:21;;;;;;;14.57;7.40;;;16.00;99.90;;;;;;5074040;28;20369;-67
2022/08/25 03:18:47;;;;;;;14.23;8.45;;;16.00;99.90;;;;;;5074070;28;20392;-67
2022/08/25 03:21:13;;;;;;;11.75;8.07;;;16.00;99.90;;;;;;5073988;28;20154;-67
2022/08/25 03:23:40;;;;;;;11.10;7.80;;;16.00;99.90;;;;;;5073510;28;20460;-68
2022/08/25 03:28:50;;;;;;;13.18;7.80;;;16.00;99.90;;;;;;5053654;28;20032;-68
2022/08/25 03:31:16;;;;;;;13.70;6.97;;;16.00;99.90;;;;;;5053872;28;20025;-69
2022/08/25 03:33:42;;;;;;;11.80;7.38;;;15.90;99.90;;;;;;5053612;28;20091;-69
2022/08/25 03:36:08;;;;;;;17.55;8.65;;;15.90;99.90;;;;;;5053562;28;20115;-67
2022/08/25 03:38:37;;;;;;;12.07;7.40;;;15.90;99.90;;;;;;5053482;28;20094;-68
2022/08/25 03:41:11;;;;;;;15.40;7.53;;;15.80;99.90;;;;;;5053781;28;20047;-67
2022/08/25 03:43:37;;;;;;;8.65;6.47;;;15.80;99.90;;;;;;5053425;28;20043;-67
2022/08/25 03:46:02;;;;;;;11.65;7.32;;;15.80;99.90;;;;;;5053428;28;20100;-67
2022/08/25 03:48:28;;;;;;;10.77;6.47;;;15.70;99.90;;;;;;5053404;28;20056;-68
2022/08/25 03:50:53;;;;;;;9.95;5.78;;;15.60;99.90;;;;;;5053266;28;20025;-68
2022/08/25 03:53:19;;;;;;;10.27;6.75;;;15.60;99.90;;;;;;5053113;28;20033;-68
2022/08/25 03:55:45;;;;;;;10.40;7.00;;;15.60;99.90;;;;;;5053566;28;20028;-68
2022/08/25 03:58:11;;;;;;;10.10;5.80;;;15.50;99.90;;;;;;5053404;28;20033;-68
2022/08/25 04:00:36;;;;;;;9.15;6.60;;;15.50;99.90;;;;;;5053251;28;20082;-67
2022/08/25 04:03:02;;;;;;;11.85;6.55;;;15.50;99.90;;;;;;5053319;28;20041;-67
2022/08/25 04:05:28;;;;;;;8.07;6.65;;;15.50;99.90;;;;;;5055631;28;20024;-67
2022/08/25 04:07:54;;;;;;;12.95;6.93;;;15.40;99.90;;;;;;5057950;28;20036;-68
2022/08/25 04:10:20;;;;;;;17.33;7.28;;;15.40;99.90;;;;;;5057626;28;20021;-68
2022/08/25 04:12:48;;;;;;;13.25;6.57;;;15.40;99.90;;;;;;5057236;28;20024;-68
2022/08/25 04:15:14;;;;;;;9.98;6.35;;;15.30;99.90;;;;;;5057243;28;20384;-68
2022/08/25 04:17:40;;;;;;;13.32;7.07;;;15.30;99.90;;;;;;5057222;28;20064;-68
2022/08/25 04:20:08;;;;;;;12.32;6.82;;;15.20;99.90;;;;;;5057175;28;20017;-68
2022/08/25 04:22:35;;;;;;;12.63;5.75;;;15.20;99.90;;;;;;5037329;28;20022;-68
2022/08/25 04:25:00;;;;;;;9.27;6.07;;;15.10;99.90;;;;;;5037322;28;20072;-68
2022/08/25 04:27:26;;;;;;;17.17;5.72;;;15.10;99.90;;;;;;5037612;28;20033;-68
2022/08/25 04:29:52;;;;;;;9.27;6.07;;;15.10;99.90;;;;;;5039964;28;20027;-68
2022/08/25 04:32:18;;;;;;;11.32;6.75;;;15.10;99.90;;;;;;5056874;28;20465;-68
2022/08/25 04:34:44;;;;;;;8.50;5.88;;;15.10;99.90;;;;;;5057149;28;20044;-68
2022/08/25 04:37:10;;;;;;;9.93;6.15;;;15.20;99.90;;;;;;5057108;28;20025;-68
2022/08/25 04:39:36;;;;;;;10.23;6.47;;;15.20;99.90;;;;;;5057192;28;20021;-67
2022/08/25 04:42:02;;;;;;;10.88;8.07;;;15.20;99.90;;;;;;5056694;28;20419;-67
2022/08/25 04:44:29;;;;;;;15.40;7.38;;;15.20;99.90;;;;;;5056597;28;20120;-68
2022/08/25 04:46:54;;;;;;;13.10;7.32;;;15.20;99.90;;;;;;5056351;28;20110;-68
2022/08/25 04:49:20;;;;;;;9.35;7.25;;;15.30;99.90;;;;;;5056883;28;20104;-68
2022/08/25 04:51:46;;;;;;;14.82;7.90;;;15.30;99.90;;;;;;5056621;28;20044;-67
2022/08/25 04:54:15;;;;;;;14.88;7.47;;;15.30;99.90;;;;;;5056444;28;20036;-67
2022/08/25 04:56:41;;;;;;;13.75;7.82;;;15.30;99.90;;;;;;5056553;28;20523;-67
2022/08/25 04:59:10;;;;;;;9.15;6.65;;;15.30;99.90;;;;;;5056505;28;20040;-67
2022/08/25 05:01:37;;;;;;;16.50;8.18;;;15.40;99.90;;;;;;5056406;28;20029;-67
2022/08/25 05:04:05;;;;;;;10.38;8.15;;;15.40;99.90;;;;;;5056477;28;20028;-68
2022/08/25 05:06:31;;;;;;;12.60;7.43;;;15.40;99.90;;;;;;5056271;28;20396;-68
2022/08/25 05:08:57;;;;;;;15.77;9.40;;;15.40;99.90;;;;;;5056241;28;20017;-68
2022/08/25 05:11:24;;;;;;;10.70;8.15;;;15.50;99.90;;;;;;5056419;28;20030;-67
2022/08/25 05:13:51;;;;;;;11.52;6.95;;;15.50;99.90;;;;;;5076020;28;20063;-67
2022/08/25 05:16:20;;;;;;;10.25;7.22;;;15.50;99.90;;;;;;5075664;28;20037;-68
2022/08/25 05:18:46;;;;;;;12.57;6.82;;;15.60;99.90;;;;;;5076382;28;20027;-68
2022/08/25 05:21:14;;;;;;;11.88;8.00;;;15.60;99.90;;;;;;5076019;28;20024;-68
2022/08/25 05:23:40;;;;;;;14.02;7.47;;;15.70;99.90;;;;;;5067857;28;20061;-67
2022/08/25 05:26:12;;;;;;;12.10;8.05;;;15.80;99.90;;;;;;5056192;28;20035;-68
2022/08/25 05:28:42;;;;;;;11.55;8.40;;;16.00;99.90;;;;;;5055944;28;20017;-68
2022/08/25 05:31:10;;;;;;;18.92;9.98;;;16.10;99.90;;;;;;5056137;28;20048;-68
2022/08/25 05:33:38;;;;;;;15.68;8.63;;;16.30;99.90;;;;;;5056022;28;20021;-67
2022/08/25 05:36:04;;;;;;;14.93;8.32;;;16.40;99.90;;;;;;5055654;28;20032;-67
2022/08/25 05:38:30;;;;;;;23.42;10.52;;;16.50;99.90;;;;;;5056004;28;20036;-68
2022/08/25 05:41:01;;;;;;;17.88;10.80;;;16.60;99.90;;;;;;5055746;28;20025;-67
2022/08/25 05:43:27;;;;;;;20.83;11.57;;;16.70;99.90;;;;;;5055543;28;20033;-68
2022/08/25 05:45:54;;;;;;;18.92;9.93;;;16.90;99.90;;;;;;5055901;28;20044;-68
2022/08/25 05:48:20;;;;;;;21.25;11.48;;;17.00;99.90;;;;;;5072542;28;20349;-68
2022/08/25 05:50:53;;;;;;;27.83;15.63;;;17.20;99.90;;;;;;5075646;28;20027;-66
2022/08/25 05:53:20;;;;;;;20.20;12.43;;;17.30;99.90;;;;;;5075305;28;20119;-66
2022/08/25 05:55:46;;;;;;;20.42;12.93;;;17.40;99.90;;;;;;5075408;28;20438;-67
2022/08/25 05:58:11;;;;;;;26.33;16.83;;;17.50;99.90;;;;;;5075355;28;20028;-67
2022/08/25 06:00:38;;;;;;;19.85;13.15;;;17.70;99.90;;;;;;5075584;28;20068;-67
2022/08/25 06:03:03;;;;;;;24.10;13.05;;;17.80;99.90;;;;;;5058780;28;20033;-67
2022/08/25 06:05:29;;;;;;;23.15;13.20;;;17.90;99.90;;;;;;5055447;28;20104;-67
2022/08/25 06:07:55;;;;;;;29.95;18.98;;;18.10;99.90;;;;;;5055399;28;20028;-67
2022/08/25 06:10:21;;;;;;;31.52;18.80;;;18.20;99.90;;;;;;5055349;28;20032;-66
2022/08/25 06:12:47;;;;;;;32.70;20.33;;;18.30;99.90;;;;;;5055006;28;20177;-67
2022/08/25 06:15:19;;;;;;;26.17;18.15;;;18.30;99.90;;;;;;5055281;28;20053;-67
2022/08/25 06:17:45;;;;;;;26.58;18.95;;;18.50;99.90;;;;;;5058077;28;20134;-68
2022/08/25 06:20:22;;;;;;;24.42;15.10;;;18.60;99.90;;;;;;5074899;28;20519;-67
2022/08/25 06:22:48;;;;;;;31.27;19.13;;;18.70;99.90;;;;;;5075100;28;20520;-68
2022/08/25 06:25:17;;;;;;;21.45;13.25;;;18.80;99.90;;;;;;5074791;28;20025;-68
2022/08/25 06:27:43;;;;;;;23.80;14.32;;;18.90;99.90;;;;;;5055563;28;20128;-68
2022/08/25 06:30:13;;;;;;;25.40;14.77;;;18.90;99.90;;;;;;5054279;28;20040;-68
2022/08/25 06:32:41;;;;;;;23.67;14.73;;;18.90;99.90;;;;;;5054649;28;20017;-68
2022/08/25 06:35:09;;;;;;;18.45;9.90;;;19.00;99.90;;;;;;5054906;28;20052;-67
2022/08/25 06:37:36;;;;;;;22.42;11.55;;;19.00;99.90;;;;;;5054866;28;20477;-68
2022/08/25 06:40:02;;;;;;;22.98;12.45;;;19.00;99.90;;;;;;5054867;28;20029;-68
2022/08/25 06:42:28;;;;;;;27.65;14.05;;;19.20;99.90;;;;;;5054441;28;20025;-68
2022/08/25 06:44:54;;;;;;;24.45;12.18;;;19.30;99.90;;;;;;5054544;28;20025;-68
2022/08/25 06:47:19;;;;;;;17.85;10.52;;;19.40;99.90;;;;;;5054364;28;20025;-67
2022/08/25 06:49:45;;;;;;;18.52;10.43;;;19.50;99.90;;;;;;5054554;28;20028;-67
2022/08/25 06:52:11;;;;;;;18.85;10.75;;;19.60;99.90;;;;;;5054118;28;20025;-67
2022/08/25 06:54:37;;;;;;;17.00;8.50;;;19.70;99.90;;;;;;5054226;28;20040;-67
2022/08/25 06:57:04;;;;;;;18.50;10.23;;;19.80;99.90;;;;;;5054466;28;20029;-67
2022/08/25 06:59:30;;;;;;;19.30;8.80;;;19.80;99.90;;;;;;5053992;28;20538;-67
2022/08/25 07:01:55;;;;;;;17.73;9.25;;;19.80;99.90;;;;;;5054286;28;20116;-67
2022/08/25 07:04:21;;;;;;;13.45;7.53;;;19.90;99.90;;;;;;5054188;28;20108;-68
2022/08/25 07:06:47;;;;;;;10.73;6.63;;;20.00;99.90;;;;;;5053832;28;20200;-67
2022/08/25 07:09:13;;;;;;;19.95;8.93;;;20.10;99.90;;;;;;5053945;28;20029;-68
2022/08/25 07:11:42;;;;;;;17.58;7.38;;;20.10;99.90;;;;;;5053968;28;20021;-68
2022/08/25 07:14:10;;;;;;;15.27;6.63;;;20.30;99.90;;;;;;5054042;28;20507;-68
2022/08/25 07:16:38;;;;;;;11.00;6.18;;;20.50;99.90;;;;;;5054122;28;20091;-68
2022/08/25 07:19:04;;;;;;;10.52;6.13;;;20.60;99.90;;;;;;5053824;28;20557;-67
2022/08/25 07:21:31;;;;;;;16.95;7.35;;;20.80;99.90;;;;;;5053754;28;20532;-67
2022/08/25 07:23:59;;;;;;;14.25;6.47;;;21.00;99.90;;;;;;5053300;28;20029;-67
2022/08/25 07:26:28;;;;;;;12.77;5.97;;;21.10;99.90;;;;;;5053703;28;20370;-68
2022/08/25 07:28:55;;;;;;;18.33;5.32;;;21.40;99.90;;;;;;5053592;28;20024;-68
2022/08/25 07:31:20;;;;;;;9.65;5.57;;;21.50;99.90;;;;;;5053938;28;20031;-68
2022/08/25 07:36:31;;;;;;;10.40;4.78;;;21.90;99.90;;;;;;5053454;28;20447;-68
2022/08/25 07:39:04;;;;;;;18.40;5.05;;;22.10;99.90;;;;;;5053788;28;20096;-70
2022/08/25 07:41:30;;;;;;;9.65;4.55;;;22.30;99.90;;;;;;5053921;28;20013;-69
2022/08/25 07:43:56;;;;;;;9.82;4.50;;;22.50;99.90;;;;;;5053138;28;20495;-70
2022/08/25 07:46:21;;;;;;;7.80;4.65;;;22.50;99.90;;;;;;5053315;28;20028;-69
2022/08/25 07:48:47;;;;;;;13.35;4.75;;;22.50;99.90;;;;;;5053414;28;20515;-68
2022/08/25 07:51:14;;;;;;;11.27;4.15;;;22.50;99.90;;;;;;5053501;28;20021;-68
2022/08/25 07:53:40;;;;;;;13.02;4.03;;;22.60;99.90;;;;;;5105833;23;20057;-70
2022/08/25 07:56:14;;;;;;;10.77;4.20;;;22.70;99.90;;;;;;5074141;28;20036;-69
2022/08/25 07:58:41;;;;;;;7.18;3.70;;;22.80;99.90;;;;;;5073686;28;20386;-69
2022/08/25 08:01:22;;;;;;;13.88;4.40;;;22.90;99.90;;;;;;5073708;28;20028;-69
2022/08/25 08:03:48;;;;;;;11.50;4.10;;;23.10;99.90;;;;;;5057127;28;20032;-69
2022/08/25 08:06:16;;;;;;;11.15;3.50;;;23.40;99.90;;;;;;5053589;28;20029;-69
2022/08/25 08:08:44;;;;;;;13.05;4.20;;;23.60;99.90;;;;;;5053579;28;20024;-70
2022/08/25 08:11:26;;;;;;;9.10;4.18;;;23.60;99.90;;;;;;5053535;28;20017;-69
2022/08/25 08:13:54;;;;;;;14.60;4.68;;;23.60;99.90;;;;;;5053481;28;20119;-70
2022/08/25 08:16:22;;;;;;;10.20;3.60;;;23.70;99.90;;;;;;5053471;28;20118;-70
2022/08/25 08:18:48;;;;;;;9.05;3.72;;;23.90;99.90;;;;;;5053453;28;20447;-70
2022/08/25 08:21:18;;;;;;;8.38;3.70;;;24.00;99.90;;;;;;5053377;28;20067;-70
2022/08/25 08:23:44;;;;;;;8.48;3.90;;;24.20;99.90;;;;;;5053251;28;20033;-69
2022/08/25 08:26:09;;;;;;;7.03;3.58;;;24.40;99.90;;;;;;5053327;28;20519;-69
2022/08/25 08:28:35;;;;;;;10.77;3.47;;;24.60;99.90;;;;;;5053941;28;20040;-69
2022/08/25 08:31:01;;;;;;;9.52;3.45;;;24.80;99.90;;;;;;5053405;28;20385;-69
2022/08/25 08:33:27;;;;;;;10.93;3.38;;;24.80;99.90;;;;;;5053328;28;20021;-69
2022/08/25 08:36:07;;;;;;;5.03;3.35;;;24.80;99.90;;;;;;5053064;28;20384;-69
2022/08/25 08:38:35;;;;;;;12.13;3.50;;;24.90;99.90;;;;;;5052989;28;20374;-69
2022/08/25 08:44:12;;;;;;;9.65;3.25;;;25.00;99.90;;;;;;5052905;28;20075;-69
2022/08/25 08:46:53;;;;;;;14.00;3.05;;;25.20;99.90;;;;;;5053393;28;20104;-69
2022/08/25 08:49:28;;;;;;;7.93;2.80;;;25.40;99.90;;;;;;5053656;28;20028;-70
2022/08/25 08:52:00;;;;;;;13.52;3.10;;;25.70;99.90;;;;;;5055607;28;20024;-70
2022/08/25 08:54:31;;;;;;;15.48;3.55;;;25.90;99.90;;;;;;5057022;28;20021;-70
2022/08/25 08:57:11;;;;;;;5.30;2.58;;;26.10;99.90;;;;;;5055432;28;20025;-70
2022/08/25 08:59:49;;;;;;;9.30;3.10;;;26.40;99.90;;;;;;5056858;28;20044;-70
2022/08/25 09:02:32;;;;;;;15.27;3.22;;;26.50;99.90;;;;;;5056641;28;20392;-70
2022/08/25 09:05:05;;;;;;;13.68;3.05;;;26.80;99.90;;;;;;5056849;28;20021;-70
2022/08/25 09:07:38;;;;;;;12.88;2.83;;;27.00;99.90;;;;;;5056623;28;20025;-70
2022/08/25 09:10:04;;;;;;;6.83;2.97;;;26.90;99.90;;;;;;5056596;28;20025;-69
2022/08/25 09:12:45;;;;;;;9.52;3.45;;;26.90;99.90;;;;;;5056317;28;20104;-70
2022/08/25 09:15:19;;;;;;;9.80;2.88;;;27.00;99.90;;;;;;5056456;28;20060;-70
2022/08/25 09:18:05;;;;;;;10.07;3.15;;;26.90;99.90;;;;;;5056344;28;20025;-70
2022/08/25 09:20:56;;;;;;;16.70;4.00;;;26.90;99.90;;;;;;5056475;28;20025;-70
2022/08/25 09:23:41;;;;;;;8.55;3.00;;;27.20;99.90;;;;;;5056339;28;20104;-69
2022/08/25 09:26:31;;;;;;;9.00;3.35;;;27.30;99.90;;;;;;5056089;28;20013;-69
2022/08/25 09:29:08;;;;;;;10.63;3.17;;;27.30;99.90;;;;;;5056382;28;20021;-69
2022/08/25 09:31:40;;;;;;;9.40;3.65;;;27.50;99.90;;;;;;5056421;28;20104;-70
2022/08/25 09:34:28;;;;;;;15.52;2.88;;;27.80;99.90;;;;;;5056671;28;20115;-69
2022/08/25 09:36:55;;;;;;;7.57;2.95;;;27.90;99.90;;;;;;5056843;28;20029;-70
2022/08/25 09:39:20;;;;;;;10.10;3.33;;;28.10;99.90;;;;;;5056166;28;20021;-70
2022/08/25 09:41:50;;;;;;;12.85;3.10;;;28.40;99.90;;;;;;5055983;28;20029;-69
2022/08/25 09:44:42;;;;;;;7.85;2.85;;;28.50;99.90;;;;;;5056339;28;20021;-69
2022/08/25 09:47:17;;;;;;;6.75;2.65;;;28.50;99.90;;;;;;5055501;28;20064;-70
2022/08/25 09:49:56;;;;;;;9.85;2.90;;;28.40;99.90;;;;;;5056027;28;20048;-70
2022/08/25 09:52:27;;;;;;;11.52;2.28;;;28.50;99.90;;;;;;5055533;28;20029;-69
2022/08/25 09:54:54;;;;;;;19.92;2.90;;;28.70;99.90;;;;;;5056090;28;20468;-69
2022/08/25 09:57:42;;;;;;;9.10;2.85;;;28.90;99.90;;;;;;5055813;28;20029;-69
2022/08/25 10:00:32;;;;;;;10.07;2.47;;;29.20;99.90;;;;;;5055745;28;20024;-69
2022/08/25 10:03:11;;;;;;;9.60;2.78;;;29.40;99.90;;;;;;5054120;28;20380;-70
2022/08/25 10:05:58;;;;;;;5.47;2.10;;;29.50;99.90;;;;;;5055489;28;20031;-70
2022/08/25 10:08:30;;;;;;;10.15;2.90;;;29.70;99.90;;;;;;5055845;28;20365;-70
2022/08/25 10:10:57;;;;;;;12.00;2.58;;;29.80;99.90;;;;;;5055621;28;20025;-70
2022/08/25 10:13:35;;;;;;;10.18;2.55;;;29.80;99.90;;;;;;5055262;28;20029;-70
2022/08/25 10:16:26;;;;;;;11.73;2.30;;;29.90;99.90;;;;;;5055347;28;20029;-70
2022/08/25 10:19:04;;;;;;;7.50;2.58;;;30.00;99.90;;;;;;5054883;28;20083;-70
2022/08/25 10:21:29;;;;;;;6.85;2.80;;;29.90;99.90;;;;;;5055840;28;20376;-69
2022/08/25 10:23:55;;;;;;;5.55;2.63;;;30.00;99.90;;;;;;5054949;28;20029;-69
2022/08/25 10:27:06;;;;;;;9.70;2.92;;;30.20;99.90;;;;;;5054869;28;20024;-70
2022/08/25 10:29:53;;;;;;;10.70;3.08;;;29.80;99.90;;;;;;5013334;28;20391;-70
2022/08/25 10:32:49;;;;;;;9.63;2.33;;;29.90;99.90;;;;;;5013525;28;20133;-70
2022/08/25 10:35:33;;;;;;;7.90;2.28;;;29.80;99.90;;;;;;5049764;28;20130;-69
2022/08/25 10:38:13;;;;;;;8.35;2.33;;;30.00;99.90;;;;;;5055082;28;20017;-69
2022/08/25 10:40:59;;;;;;;4.93;2.17;;;29.90;99.90;;;;;;5053225;28;20374;-69
2022/08/25 10:43:37;;;;;;;7.40;2.35;;;29.90;99.90;;;;;;5054741;28;20107;-69
2022/08/25 10:46:16;;;;;;;8.38;2.67;;;30.20;99.90;;;;;;5054924;28;20024;-70
2022/08/25 10:48:56;;;;;;;5.05;2.17;;;30.40;99.90;;;;;;5054963;28;20388;-70
2022/08/25 10:51:28;;;;;;;8.43;2.42;;;30.60;99.90;;;;;;5054497;28;20039;-69
2022/08/25 10:53:57;;;;;;;9.18;2.67;;;30.50;99.90;;;;;;5054315;28;20120;-69
2022/08/25 10:56:32;;;;;;;6.82;2.05;;;30.80;99.90;;;;;;5054883;28;20021;-69
2022/08/25 10:59:10;;;;;;;7.00;2.13;;;31.20;99.90;;;;;;5054413;28;20421;-69
2022/08/25 11:02:03;;;;;;;3.35;1.77;;;31.40;99.90;;;;;;5054251;28;20029;-70
2022/08/25 11:04:43;;;;;;;8.68;2.13;;;31.60;99.90;;;;;;5054768;28;20104;-70
2022/08/25 11:07:28;;;;;;;9.57;2.47;;;31.50;99.90;;;;;;5054209;28;20024;-70
2022/08/25 11:09:59;;;;;;;5.18;2.60;;;31.10;99.90;;;;;;5054179;28;20029;-70
2022/08/25 11:12:40;;;;;;;13.05;2.67;;;30.60;99.90;;;;;;5054256;28;20021;-69
2022/08/25 11:15:13;;;;;;;5.80;1.98;;;30.50;99.90;;;;;;5053589;28;20028;-70
2022/08/25 11:17:51;;;;;;;4.47;2.25;;;30.60;99.90;;;;;;5054930;28;20434;-70
2022/08/25 11:20:22;;;;;;;6.47;1.90;;;30.60;99.90;;;;;;5054412;28;20029;-69
2022/08/25 11:23:11;;;;;;;8.02;2.17;;;30.60;99.90;;;;;;5054218;28;20025;-69
2022/08/25 11:25:51;;;;;;;4.65;2.10;;;30.80;99.90;;;;;;5054045;28;20068;-70
2022/08/25 11:28:23;;;;;;;8.80;1.77;;;30.90;99.90;;;;;;5053959;28;20075;-70
2022/08/25 11:30:51;;;;;;;6.43;1.92;;;31.20;99.90;;;;;;5053917;28;20025;-69
2022/08/25 11:33:18;;;;;;;5.25;2.28;;;31.40;99.90;;;;;;5053615;28;20029;-69
2022/08/25 11:36:02;;;;;;;6.40;2.17;;;31.40;99.90;;;;;;5053723;28;20017;-69
2022/08/25 11:38:52;;;;;;;5.45;1.88;;;31.50;99.90;;;;;;5054062;28;20051;-69
2022/08/25 11:41:36;;;;;;;4.10;1.65;;;31.50;99.90;;;;;;5053700;28;20021;-70
2022/08/25 11:44:38;;;;;;;8.50;2.22;;;31.30;99.90;;;;;;5053572;28;20028;-70
2022/08/25 11:47:30;;;;;;;8.23;2.35;;;31.20;99.90;;;;;;5053691;28;20048;-69
2022/08/25 11:50:05;;;;;;;8.63;2.40;;;31.40;99.90;;;;;;5051359;28;20029;-69
2022/08/25 11:52:30;;;;;;;11.88;2.38;;;31.70;99.90;;;;;;5054015;28;20488;-69
2022/08/25 11:55:28;;;;;;;5.65;1.92;;;32.00;99.90;;;;;;5054202;28;20029;-70
2022/08/25 11:58:14;;;;;;;6.93;2.30;;;32.40;99.90;;;;;;5048289;28;20443;-69
2022/08/25 12:00:42;;;;;;;8.27;2.50;;;32.80;99.90;;;;;;5053193;28;20025;-70
2022/08/25 12:03:35;;;;;;;7.85;2.15;;;32.70;99.90;;;;;;5053264;28;20028;-70
2022/08/25 12:06:26;;;;;;;6.82;2.45;;;32.60;99.90;;;;;;5053350;28;20033;-69
2022/08/25 12:09:04;;;;;;;10.95;2.45;;;32.80;99.90;;;;;;5053910;28;20029;-69
2022/08/25 12:11:48;;;;;;;5.60;2.03;;;33.00;99.90;;;;;;5053421;28;20497;-67
2022/08/25 12:14:35;;;;;;;7.53;2.55;;;33.10;99.90;;;;;;5053299;28;20188;-69
2022/08/25 12:17:17;;;;;;;6.90;2.42;;;33.40;99.90;;;;;;5053822;28;20017;-69
2022/08/25 12:19:42;;;;;;;8.15;1.52;;;33.50;99.90;;;;;;5053300;28;20397;-69
2022/08/25 12:22:08;;;;;;;6.00;1.90;;;33.70;99.90;;;;;;5053188;28;20025;-69
2022/08/25 12:24:42;;;;;;;5.50;2.15;;;34.10;99.90;;;;;;5052891;28;20024;-67
2022/08/25 12:27:20;;;;;;;7.43;1.92;;;34.70;99.90;;;;;;5056723;28;20534;-69
2022/08/25 12:29:57;;;;;;;8.32;2.08;;;34.80;99.90;;;;;;5057224;28;20025;-70
2022/08/25 12:32:34;;;;;;;6.53;2.25;;;34.80;99.90;;;;;;5057338;28;20025;-70
2022/08/25 12:35:29;;;;;;;7.30;2.15;;;34.90;99.90;;;;;;5056952;28;20029;-67
2022/08/25 12:38:09;;;;;;;13.07;4.15;;;34.90;99.90;;;;;;5020767;28;20053;-67
2022/08/25 12:40:46;;;;;;;9.40;2.83;;;34.50;99.90;;;;;;5057266;28;20025;-69
2022/08/25 12:43:23;;;;;;;13.55;2.25;;;34.00;99.90;;;;;;5056709;28;20033;-70
2022/08/25 12:46:13;;;;;;;6.38;2.17;;;33.80;99.90;;;;;;5057517;28;20078;-69
2022/08/25 12:49:25;;;;;;;6.95;2.03;;;33.70;99.90;;;;;;5056763;28;20025;-67
2022/08/25 12:51:55;;;;;;;24.10;2.60;;;34.30;99.90;;;;;;5038786;28;20037;-67
2022/08/25 12:54:46;;;;;;;11.02;2.10;;;34.70;99.60;;;;;;5056780;28;20041;-67
2022/08/25 12:57:41;;;;;;;8.88;2.42;;;34.60;99.70;;;;;;5056635;28;20032;-67
2022/08/25 13:00:20;;;;;;;12.60;2.63;;;34.80;99.60;;;;;;5056742;28;20024;-67
2022/08/25 13:03:23;;;;;;;6.80;2.20;;;34.80;98.50;;;;;;5056823;28;20055;-67
2022/08/25 13:06:44;;;;;;;10.80;2.47;;;34.80;98.30;;;;;;5022393;28;20045;-69
2022/08/25 13:09:34;;;;;;;8.57;1.85;;;34.90;97.30;;;;;;5014785;28;20030;-69
2022/08/25 13:12:23;;;;;;;10.15;2.17;;;35.20;96.90;;;;;;5056661;28;20099;-70